sensor_id;sensor_type;location;lat;lon;timestamp;P1;durP1;ratioP1;P2;durP2;ratioP2
6033;SDS011;3045;43.226;27.858;2022-07-29T00:00:30;4.03;;;3.90;;
6033;SDS011;3045;43.226;27.858;2022-07-29T00:02:57;3.70;;;3.55;;
6033;SDS011;3045;43.226;27.858;2022-07-29T00:05:24;4.28;;;4.10;;
6033;SDS011;3045;43.226;27.858;2022-07-29T00:07:51;4.55;;;4.35;;
6033;SDS011;3045;43.226;27.858;2022-07-29T00:10:18;4.90;;;4.65;;
6033;SDS011;3045;43.226;27.858;2022-07-29T00:12:46;4.93;;;4.72;;
6033;SDS011;3045;43.226;27.858;2022-07-29T00:15:13;4.93;;;3.72;;
6033;SDS011;3045;43.226;27.858;2022-07-29T00:17:40;4.65;;;4.25;;
6033;SDS011;3045;43.226;27.858;2022-07-29T00:20:08;5.50;;;4.95;;
6033;SDS011;3045;43.226;27.858;2022-07-29T00:22:37;5.03;;;4.72;;
6033;SDS011;3045;43.226;27.858;2022-07-29T00:25:06;4.65;;;4.35;;
6033;SDS011;3045;43.226;27.858;2022-07-29T00:27:34;8.93;;;4.82;;
6033;SDS011;3045;43.226;27.858;2022-07-29T00:30:02;4.50;;;4.20;;
6033;SDS011;3045;43.226;27.858;2022-07-29T00:32:30;4.80;;;4.55;;
6033;SDS011;3045;43.226;27.858;2022-07-29T00:34:56;4.32;;;4.15;;
6033;SDS011;3045;43.226;27.858;2022-07-29T00:37:41;6.25;;;4.15;;
6033;SDS011;3045;43.226;27.858;2022-07-29T00:40:08;4.45;;;4.15;;
6033;SDS011;3045;43.226;27.858;2022-07-29T00:42:41;4.45;;;4.30;;
6033;SDS011;3045;43.226;27.858;2022-07-29T00:45:10;4.50;;;4.20;;
6033;SDS011;3045;43.226;27.858;2022-07-29T00:47:38;4.80;;;4.60;;
6033;SDS011;3045;43.226;27.858;2022-07-29T00:50:05;4.88;;;4.43;;
6033;SDS011;3045;43.226;27.858;2022-07-29T00:52:34;6.78;;;4.68;;
6033;SDS011;3045;43.226;27.858;2022-07-29T00:55:02;4.72;;;4.53;;
6033;SDS011;3045;43.226;27.858;2022-07-29T00:57:29;4.82;;;4.40;;
6033;SDS011;3045;43.226;27.858;2022-07-29T00:59:56;4.63;;;4.32;;
6033;SDS011;3045;43.226;27.858;2022-07-29T01:02:25;4.43;;;4.22;;
6033;SDS011;3045;43.226;27.858;2022-07-29T01:04:52;4.22;;;3.80;;
6033;SDS011;3045;43.226;27.858;2022-07-29T01:07:20;4.80;;;4.50;;
6033;SDS011;3045;43.226;27.858;2022-07-29T01:09:47;5.18;;;4.88;;
6033;SDS011;3045;43.226;27.858;2022-07-29T01:12:15;5.50;;;5.03;;
6033;SDS011;3045;43.226;27.858;2022-07-29T01:14:44;8.30;;;5.70;;
6033;SDS011;3045;43.226;27.858;2022-07-29T01:17:13;5.82;;;5.38;;
6033;SDS011;3045;43.226;27.858;2022-07-29T01:19:47;5.82;;;5.25;;
6033;SDS011;3045;43.226;27.858;2022-07-29T01:22:25;6.28;;;5.30;;
6033;SDS011;3045;43.226;27.858;2022-07-29T01:28:00;7.80;;;5.30;;
6033;SDS011;3045;43.226;27.858;2022-07-29T01:30:37;5.40;;;5.10;;
6033;SDS011;3045;43.226;27.858;2022-07-29T01:33:07;5.63;;;5.38;;
6033;SDS011;3045;43.226;27.858;2022-07-29T01:35:56;6.53;;;5.78;;
6033;SDS011;3045;43.226;27.858;2022-07-29T01:38:26;5.10;;;4.80;;
6033;SDS011;3045;43.226;27.858;2022-07-29T01:40:58;5.60;;;5.05;;
6033;SDS011;3045;43.226;27.858;2022-07-29T01:43:31;5.88;;;5.47;;
6033;SDS011;3045;43.226;27.858;2022-07-29T01:46:13;8.07;;;6.35;;
6033;SDS011;3045;43.226;27.858;2022-07-29T01:48:47;6.43;;;5.95;;
6033;SDS011;3045;43.226;27.858;2022-07-29T01:51:16;9.35;;;6.60;;
6033;SDS011;3045;43.226;27.858;2022-07-29T01:53:47;6.72;;;6.07;;
6033;SDS011;3045;43.226;27.858;2022-07-29T01:56:20;11.20;;;6.35;;
6033;SDS011;3045;43.226;27.858;2022-07-29T01:58:50;7.45;;;6.75;;
6033;SDS011;3045;43.226;27.858;2022-07-29T02:01:21;6.75;;;6.15;;
6033;SDS011;3045;43.226;27.858;2022-07-29T02:03:50;5.72;;;5.32;;
6033;SDS011;3045;43.226;27.858;2022-07-29T02:06:20;6.32;;;5.20;;
6033;SDS011;3045;43.226;27.858;2022-07-29T02:08:48;5.53;;;5.25;;
6033;SDS011;3045;43.226;27.858;2022-07-29T02:11:17;6.88;;;5.13;;
6033;SDS011;3045;43.226;27.858;2022-07-29T02:13:44;5.97;;;5.25;;
6033;SDS011;3045;43.226;27.858;2022-07-29T02:16:14;5.13;;;4.80;;
6033;SDS011;3045;43.226;27.858;2022-07-29T02:18:45;5.00;;;4.68;;
6033;SDS011;3045;43.226;27.858;2022-07-29T02:21:15;5.68;;;5.15;;
6033;SDS011;3045;43.226;27.858;2022-07-29T02:23:47;5.15;;;4.35;;
6033;SDS011;3045;43.226;27.858;2022-07-29T02:26:16;5.13;;;4.67;;
6033;SDS011;3045;43.226;27.858;2022-07-29T02:28:44;5.43;;;5.13;;
6033;SDS011;3045;43.226;27.858;2022-07-29T02:31:12;5.57;;;4.83;;
6033;SDS011;3045;43.226;27.858;2022-07-29T02:33:40;5.03;;;4.55;;
6033;SDS011;3045;43.226;27.858;2022-07-29T02:36:10;5.20;;;4.80;;
6033;SDS011;3045;43.226;27.858;2022-07-29T02:38:38;5.35;;;4.88;;
6033;SDS011;3045;43.226;27.858;2022-07-29T02:41:17;5.55;;;5.25;;
6033;SDS011;3045;43.226;27.858;2022-07-29T02:43:46;5.73;;;5.43;;
6033;SDS011;3045;43.226;27.858;2022-07-29T02:46:17;5.13;;;4.80;;
6033;SDS011;3045;43.226;27.858;2022-07-29T02:48:50;6.07;;;4.90;;
6033;SDS011;3045;43.226;27.858;2022-07-29T02:51:23;6.95;;;5.93;;
6033;SDS011;3045;43.226;27.858;2022-07-29T02:53:57;8.18;;;5.78;;
6033;SDS011;3045;43.226;27.858;2022-07-29T02:56:28;7.33;;;6.63;;
6033;SDS011;3045;43.226;27.858;2022-07-29T02:59:01;7.70;;;7.05;;
6033;SDS011;3045;43.226;27.858;2022-07-29T03:01:32;6.80;;;6.47;;
6033;SDS011;3045;43.226;27.858;2022-07-29T03:04:01;6.45;;;6.15;;
6033;SDS011;3045;43.226;27.858;2022-07-29T03:06:32;7.10;;;6.60;;
6033;SDS011;3045;43.226;27.858;2022-07-29T03:09:00;22.87;;;9.70;;
6033;SDS011;3045;43.226;27.858;2022-07-29T03:11:28;17.20;;;8.98;;
6033;SDS011;3045;43.226;27.858;2022-07-29T03:13:55;14.77;;;9.60;;
6033;SDS011;3045;43.226;27.858;2022-07-29T03:16:23;23.67;;;15.30;;
6033;SDS011;3045;43.226;27.858;2022-07-29T03:18:51;33.47;;;17.15;;
6033;SDS011;3045;43.226;27.858;2022-07-29T03:21:18;26.33;;;17.58;;
6033;SDS011;3045;43.226;27.858;2022-07-29T03:23:46;14.32;;;12.77;;
6033;SDS011;3045;43.226;27.858;2022-07-29T03:26:13;23.55;;;17.00;;
6033;SDS011;3045;43.226;27.858;2022-07-29T03:28:40;27.50;;;18.03;;
6033;SDS011;3045;43.226;27.858;2022-07-29T03:31:07;26.75;;;17.65;;
6033;SDS011;3045;43.226;27.858;2022-07-29T03:33:34;25.27;;;18.30;;
6033;SDS011;3045;43.226;27.858;2022-07-29T03:36:04;28.42;;;16.98;;
6033;SDS011;3045;43.226;27.858;2022-07-29T03:38:32;24.27;;;16.92;;
6033;SDS011;3045;43.226;27.858;2022-07-29T03:41:05;29.92;;;17.02;;
6033;SDS011;3045;43.226;27.858;2022-07-29T03:43:36;22.00;;;16.85;;
6033;SDS011;3045;43.226;27.858;2022-07-29T03:46:06;26.83;;;16.08;;
6033;SDS011;3045;43.226;27.858;2022-07-29T03:48:34;35.47;;;16.98;;
6033;SDS011;3045;43.226;27.858;2022-07-29T03:51:03;25.15;;;15.80;;
6033;SDS011;3045;43.226;27.858;2022-07-29T03:53:30;31.98;;;15.52;;
6033;SDS011;3045;43.226;27.858;2022-07-29T03:56:00;28.42;;;16.20;;
6033;SDS011;3045;43.226;27.858;2022-07-29T03:58:29;29.50;;;14.85;;
6033;SDS011;3045;43.226;27.858;2022-07-29T04:00:58;29.73;;;13.55;;
6033;SDS011;3045;43.226;27.858;2022-07-29T04:03:25;11.52;;;6.57;;
6033;SDS011;3045;43.226;27.858;2022-07-29T04:05:58;6.05;;;4.00;;
6033;SDS011;3045;43.226;27.858;2022-07-29T04:08:27;3.72;;;3.63;;
6033;SDS011;3045;43.226;27.858;2022-07-29T04:10:54;4.10;;;3.70;;
6033;SDS011;3045;43.226;27.858;2022-07-29T04:13:21;25.80;;;10.48;;
6033;SDS011;3045;43.226;27.858;2022-07-29T04:15:49;23.35;;;11.65;;
6033;SDS011;3045;43.226;27.858;2022-07-29T04:18:16;25.23;;;13.10;;
6033;SDS011;3045;43.226;27.858;2022-07-29T04:20:43;20.23;;;11.68;;
6033;SDS011;3045;43.226;27.858;2022-07-29T04:23:10;24.05;;;12.80;;
6033;SDS011;3045;43.226;27.858;2022-07-29T04:25:37;27.83;;;12.55;;
6033;SDS011;3045;43.226;27.858;2022-07-29T04:28:05;19.60;;;12.15;;
6033;SDS011;3045;43.226;27.858;2022-07-29T04:30:33;20.63;;;12.23;;
6033;SDS011;3045;43.226;27.858;2022-07-29T04:33:03;15.80;;;12.15;;
6033;SDS011;3045;43.226;27.858;2022-07-29T04:35:33;19.70;;;12.73;;
6033;SDS011;3045;43.226;27.858;2022-07-29T04:38:01;28.63;;;12.57;;
6033;SDS011;3045;43.226;27.858;2022-07-29T04:40:29;21.52;;;12.55;;
6033;SDS011;3045;43.226;27.858;2022-07-29T04:42:55;20.83;;;11.57;;
6033;SDS011;3045;43.226;27.858;2022-07-29T04:45:22;16.23;;;11.65;;
6033;SDS011;3045;43.226;27.858;2022-07-29T04:47:50;13.13;;;11.90;;
6033;SDS011;3045;43.226;27.858;2022-07-29T04:50:18;23.45;;;10.98;;
6033;SDS011;3045;43.226;27.858;2022-07-29T04:52:45;17.95;;;6.65;;
6033;SDS011;3045;43.226;27.858;2022-07-29T04:55:12;10.90;;;7.78;;
6033;SDS011;3045;43.226;27.858;2022-07-29T04:57:39;10.48;;;6.95;;
6033;SDS011;3045;43.226;27.858;2022-07-29T05:00:06;5.68;;;4.93;;
6033;SDS011;3045;43.226;27.858;2022-07-29T05:02:34;4.57;;;4.25;;
6033;SDS011;3045;43.226;27.858;2022-07-29T05:05:01;8.15;;;7.38;;
6033;SDS011;3045;43.226;27.858;2022-07-29T05:07:29;9.50;;;7.40;;
6033;SDS011;3045;43.226;27.858;2022-07-29T05:09:56;14.88;;;8.25;;
6033;SDS011;3045;43.226;27.858;2022-07-29T05:12:23;9.82;;;7.53;;
6033;SDS011;3045;43.226;27.858;2022-07-29T05:14:50;7.90;;;7.15;;
6033;SDS011;3045;43.226;27.858;2022-07-29T05:17:17;7.25;;;6.75;;
6033;SDS011;3045;43.226;27.858;2022-07-29T05:19:44;16.55;;;7.93;;
6033;SDS011;3045;43.226;27.858;2022-07-29T05:22:11;7.85;;;7.22;;
6033;SDS011;3045;43.226;27.858;2022-07-29T05:24:39;7.57;;;6.88;;
6033;SDS011;3045;43.226;27.858;2022-07-29T05:27:06;8.48;;;7.78;;
6033;SDS011;3045;43.226;27.858;2022-07-29T05:29:33;8.02;;;7.30;;
6033;SDS011;3045;43.226;27.858;2022-07-29T05:32:00;7.85;;;7.43;;
6033;SDS011;3045;43.226;27.858;2022-07-29T05:34:27;15.27;;;7.07;;
6033;SDS011;3045;43.226;27.858;2022-07-29T05:36:54;7.30;;;6.68;;
6033;SDS011;3045;43.226;27.858;2022-07-29T05:39:20;7.32;;;6.60;;
6033;SDS011;3045;43.226;27.858;2022-07-29T05:41:49;7.63;;;6.93;;
6033;SDS011;3045;43.226;27.858;2022-07-29T05:44:17;11.10;;;6.35;;
6033;SDS011;3045;43.226;27.858;2022-07-29T05:46:44;9.20;;;6.32;;
6033;SDS011;3045;43.226;27.858;2022-07-29T05:49:11;6.40;;;5.82;;
6033;SDS011;3045;43.226;27.858;2022-07-29T05:51:38;6.18;;;5.70;;
6033;SDS011;3045;43.226;27.858;2022-07-29T05:54:05;10.68;;;6.00;;
6033;SDS011;3045;43.226;27.858;2022-07-29T05:56:32;6.30;;;5.90;;
6033;SDS011;3045;43.226;27.858;2022-07-29T05:59:00;7.22;;;6.65;;
6033;SDS011;3045;43.226;27.858;2022-07-29T06:01:28;11.07;;;5.78;;
6033;SDS011;3045;43.226;27.858;2022-07-29T06:03:55;7.82;;;5.10;;
6033;SDS011;3045;43.226;27.858;2022-07-29T06:06:22;6.25;;;5.32;;
6033;SDS011;3045;43.226;27.858;2022-07-29T06:08:48;8.65;;;5.00;;
6033;SDS011;3045;43.226;27.858;2022-07-29T06:11:15;7.45;;;4.80;;
6033;SDS011;3045;43.226;27.858;2022-07-29T06:13:42;6.18;;;4.53;;
6033;SDS011;3045;43.226;27.858;2022-07-29T06:16:10;6.57;;;6.18;;
6033;SDS011;3045;43.226;27.858;2022-07-29T06:18:37;6.57;;;3.95;;
6033;SDS011;3045;43.226;27.858;2022-07-29T06:21:07;6.60;;;4.47;;
6033;SDS011;3045;43.226;27.858;2022-07-29T06:23:35;5.82;;;4.30;;
6033;SDS011;3045;43.226;27.858;2022-07-29T06:26:02;4.95;;;4.20;;
6033;SDS011;3045;43.226;27.858;2022-07-29T06:28:29;4.63;;;3.90;;
6033;SDS011;3045;43.226;27.858;2022-07-29T06:30:56;15.93;;;5.85;;
6033;SDS011;3045;43.226;27.858;2022-07-29T06:33:25;6.22;;;3.90;;
6033;SDS011;3045;43.226;27.858;2022-07-29T06:35:51;25.38;;;6.75;;
6033;SDS011;3045;43.226;27.858;2022-07-29T06:38:19;12.80;;;6.28;;
6033;SDS011;3045;43.226;27.858;2022-07-29T06:40:46;14.77;;;6.15;;
6033;SDS011;3045;43.226;27.858;2022-07-29T06:43:31;16.95;;;5.35;;
6033;SDS011;3045;43.226;27.858;2022-07-29T06:46:01;11.07;;;5.47;;
6033;SDS011;3045;43.226;27.858;2022-07-29T06:48:30;7.22;;;4.22;;
6033;SDS011;3045;43.226;27.858;2022-07-29T06:50:58;17.50;;;5.45;;
6033;SDS011;3045;43.226;27.858;2022-07-29T06:53:27;12.68;;;5.18;;
6033;SDS011;3045;43.226;27.858;2022-07-29T06:55:54;11.75;;;4.63;;
6033;SDS011;3045;43.226;27.858;2022-07-29T06:58:21;25.38;;;5.35;;
6033;SDS011;3045;43.226;27.858;2022-07-29T07:00:48;10.40;;;4.68;;
6033;SDS011;3045;43.226;27.858;2022-07-29T07:03:15;12.93;;;4.88;;
6033;SDS011;3045;43.226;27.858;2022-07-29T07:05:44;33.67;;;5.72;;
6033;SDS011;3045;43.226;27.858;2022-07-29T07:08:12;13.20;;;4.57;;
6033;SDS011;3045;43.226;27.858;2022-07-29T07:10:42;26.00;;;4.82;;
6033;SDS011;3045;43.226;27.858;2022-07-29T07:13:09;11.57;;;4.47;;
6033;SDS011;3045;43.226;27.858;2022-07-29T07:15:36;6.28;;;4.20;;
6033;SDS011;3045;43.226;27.858;2022-07-29T07:18:04;5.45;;;4.00;;
6033;SDS011;3045;43.226;27.858;2022-07-29T07:20:31;5.35;;;4.18;;
6033;SDS011;3045;43.226;27.858;2022-07-29T07:23:00;4.45;;;4.10;;
6033;SDS011;3045;43.226;27.858;2022-07-29T07:25:27;5.20;;;4.20;;
6033;SDS011;3045;43.226;27.858;2022-07-29T07:27:54;7.43;;;4.03;;
6033;SDS011;3045;43.226;27.858;2022-07-29T07:30:21;14.98;;;5.72;;
6033;SDS011;3045;43.226;27.858;2022-07-29T07:32:48;12.00;;;5.40;;
6033;SDS011;3045;43.226;27.858;2022-07-29T07:35:15;6.35;;;5.22;;
6033;SDS011;3045;43.226;27.858;2022-07-29T07:37:42;7.63;;;4.28;;
6033;SDS011;3045;43.226;27.858;2022-07-29T07:40:13;10.10;;;4.15;;
6033;SDS011;3045;43.226;27.858;2022-07-29T07:42:40;6.35;;;4.63;;
6033;SDS011;3045;43.226;27.858;2022-07-29T07:45:08;10.00;;;4.30;;
6033;SDS011;3045;43.226;27.858;2022-07-29T07:47:36;6.60;;;4.40;;
6033;SDS011;3045;43.226;27.858;2022-07-29T07:50:03;12.13;;;4.55;;
6033;SDS011;3045;43.226;27.858;2022-07-29T07:52:31;5.95;;;4.50;;
6033;SDS011;3045;43.226;27.858;2022-07-29T07:54:58;11.48;;;4.47;;
6033;SDS011;3045;43.226;27.858;2022-07-29T07:57:27;4.30;;;3.88;;
6033;SDS011;3045;43.226;27.858;2022-07-29T07:59:54;3.53;;;3.33;;
6033;SDS011;3045;43.226;27.858;2022-07-29T08:02:21;3.50;;;3.20;;
6033;SDS011;3045;43.226;27.858;2022-07-29T08:04:48;7.05;;;3.75;;
6033;SDS011;3045;43.226;27.858;2022-07-29T08:07:14;3.60;;;3.30;;
6033;SDS011;3045;43.226;27.858;2022-07-29T08:09:41;4.03;;;3.38;;
6033;SDS011;3045;43.226;27.858;2022-07-29T08:12:09;3.88;;;3.47;;
6033;SDS011;3045;43.226;27.858;2022-07-29T08:14:37;3.75;;;3.45;;
6033;SDS011;3045;43.226;27.858;2022-07-29T08:17:04;5.65;;;3.80;;
6033;SDS011;3045;43.226;27.858;2022-07-29T08:19:32;5.43;;;3.13;;
6033;SDS011;3045;43.226;27.858;2022-07-29T08:21:59;5.35;;;3.60;;
6033;SDS011;3045;43.226;27.858;2022-07-29T08:24:26;2.80;;;2.67;;
6033;SDS011;3045;43.226;27.858;2022-07-29T08:27:18;3.55;;;3.22;;
6033;SDS011;3045;43.226;27.858;2022-07-29T08:29:47;3.40;;;3.30;;
6033;SDS011;3045;43.226;27.858;2022-07-29T08:32:14;3.05;;;2.75;;
6033;SDS011;3045;43.226;27.858;2022-07-29T08:34:41;4.45;;;3.00;;
6033;SDS011;3045;43.226;27.858;2022-07-29T08:37:11;3.15;;;2.80;;
6033;SDS011;3045;43.226;27.858;2022-07-29T08:39:38;10.00;;;3.17;;
6033;SDS011;3045;43.226;27.858;2022-07-29T08:42:06;3.50;;;3.40;;
6033;SDS011;3045;43.226;27.858;2022-07-29T08:44:34;4.30;;;3.03;;
6033;SDS011;3045;43.226;27.858;2022-07-29T08:47:03;5.72;;;3.00;;
6033;SDS011;3045;43.226;27.858;2022-07-29T08:49:32;3.13;;;2.88;;
6033;SDS011;3045;43.226;27.858;2022-07-29T08:52:00;3.20;;;2.97;;
6033;SDS011;3045;43.226;27.858;2022-07-29T08:54:27;3.50;;;3.20;;
6033;SDS011;3045;43.226;27.858;2022-07-29T08:56:57;5.35;;;4.93;;
6033;SDS011;3045;43.226;27.858;2022-07-29T08:59:25;3.78;;;3.15;;
6033;SDS011;3045;43.226;27.858;2022-07-29T09:01:53;5.47;;;3.28;;
6033;SDS011;3045;43.226;27.858;2022-07-29T09:04:25;3.47;;;2.45;;
6033;SDS011;3045;43.226;27.858;2022-07-29T09:06:56;6.45;;;3.00;;
6033;SDS011;3045;43.226;27.858;2022-07-29T09:09:27;4.35;;;2.70;;
6033;SDS011;3045;43.226;27.858;2022-07-29T09:11:54;3.47;;;3.22;;
6033;SDS011;3045;43.226;27.858;2022-07-29T09:14:21;5.55;;;2.95;;
6033;SDS011;3045;43.226;27.858;2022-07-29T09:16:49;3.28;;;3.10;;
6033;SDS011;3045;43.226;27.858;2022-07-29T09:19:22;3.17;;;2.92;;
6033;SDS011;3045;43.226;27.858;2022-07-29T09:21:52;6.70;;;3.00;;
6033;SDS011;3045;43.226;27.858;2022-07-29T09:24:23;2.35;;;2.22;;
6033;SDS011;3045;43.226;27.858;2022-07-29T09:26:51;4.32;;;3.05;;
6033;SDS011;3045;43.226;27.858;2022-07-29T09:29:18;3.03;;;2.92;;
6033;SDS011;3045;43.226;27.858;2022-07-29T09:31:47;2.58;;;2.47;;
6033;SDS011;3045;43.226;27.858;2022-07-29T09:34:15;3.10;;;2.97;;
6033;SDS011;3045;43.226;27.858;2022-07-29T09:36:44;3.13;;;2.85;;
6033;SDS011;3045;43.226;27.858;2022-07-29T09:39:14;2.85;;;2.65;;
6033;SDS011;3045;43.226;27.858;2022-07-29T09:41:46;2.90;;;2.78;;
6033;SDS011;3045;43.226;27.858;2022-07-29T09:44:14;4.43;;;4.07;;
6033;SDS011;3045;43.226;27.858;2022-07-29T09:46:52;7.47;;;3.00;;
6033;SDS011;3045;43.226;27.858;2022-07-29T09:49:20;4.05;;;3.72;;
6033;SDS011;3045;43.226;27.858;2022-07-29T09:51:46;5.45;;;3.00;;
6033;SDS011;3045;43.226;27.858;2022-07-29T09:54:27;2.90;;;2.80;;
6033;SDS011;3045;43.226;27.858;2022-07-29T09:56:59;2.92;;;2.83;;
6033;SDS011;3045;43.226;27.858;2022-07-29T09:59:26;3.38;;;3.08;;
6033;SDS011;3045;43.226;27.858;2022-07-29T10:01:53;2.72;;;2.58;;
6033;SDS011;3045;43.226;27.858;2022-07-29T10:04:20;3.85;;;2.72;;
6033;SDS011;3045;43.226;27.858;2022-07-29T10:06:56;5.93;;;2.60;;
6033;SDS011;3045;43.226;27.858;2022-07-29T10:09:26;5.55;;;3.08;;
6033;SDS011;3045;43.226;27.858;2022-07-29T10:12:07;3.35;;;2.78;;
6033;SDS011;3045;43.226;27.858;2022-07-29T10:14:36;3.22;;;3.03;;
6033;SDS011;3045;43.226;27.858;2022-07-29T10:17:04;5.28;;;3.05;;
6033;SDS011;3045;43.226;27.858;2022-07-29T10:19:32;3.67;;;3.20;;
6033;SDS011;3045;43.226;27.858;2022-07-29T10:22:01;3.63;;;3.15;;
6033;SDS011;3045;43.226;27.858;2022-07-29T10:24:31;4.75;;;3.15;;
6033;SDS011;3045;43.226;27.858;2022-07-29T10:26:59;3.00;;;2.90;;
6033;SDS011;3045;43.226;27.858;2022-07-29T10:29:28;5.35;;;2.92;;
6033;SDS011;3045;43.226;27.858;2022-07-29T10:32:10;7.07;;;2.95;;
6033;SDS011;3045;43.226;27.858;2022-07-29T10:34:51;2.67;;;2.47;;
6033;SDS011;3045;43.226;27.858;2022-07-29T10:37:29;3.53;;;2.83;;
6033;SDS011;3045;43.226;27.858;2022-07-29T10:40:06;2.63;;;2.53;;
6033;SDS011;3045;43.226;27.858;2022-07-29T10:42:59;4.75;;;2.67;;
6033;SDS011;3045;43.226;27.858;2022-07-29T10:45:34;4.22;;;2.60;;
6033;SDS011;3045;43.226;27.858;2022-07-29T10:48:04;6.65;;;2.58;;
6033;SDS011;3045;43.226;27.858;2022-07-29T10:53:19;4.43;;;2.90;;
6033;SDS011;3045;43.226;27.858;2022-07-29T10:55:47;5.55;;;2.75;;
6033;SDS011;3045;43.226;27.858;2022-07-29T10:58:16;2.53;;;2.42;;
6033;SDS011;3045;43.226;27.858;2022-07-29T11:00:44;2.83;;;2.72;;
6033;SDS011;3045;43.226;27.858;2022-07-29T11:06:09;2.92;;;2.63;;
6033;SDS011;3045;43.226;27.858;2022-07-29T11:08:36;7.05;;;3.00;;
6033;SDS011;3045;43.226;27.858;2022-07-29T11:14:00;6.13;;;5.68;;
6033;SDS011;3045;43.226;27.858;2022-07-29T11:16:31;3.60;;;3.40;;
6033;SDS011;3045;43.226;27.858;2022-07-29T11:19:30;3.00;;;2.90;;
6033;SDS011;3045;43.226;27.858;2022-07-29T11:21:57;4.38;;;3.28;;
6033;SDS011;3045;43.226;27.858;2022-07-29T11:24:25;3.35;;;3.15;;
6033;SDS011;3045;43.226;27.858;2022-07-29T11:27:11;3.08;;;2.95;;
6033;SDS011;3045;43.226;27.858;2022-07-29T11:29:40;2.88;;;2.78;;
6033;SDS011;3045;43.226;27.858;2022-07-29T11:32:15;4.20;;;3.20;;
6033;SDS011;3045;43.226;27.858;2022-07-29T11:34:45;2.70;;;2.60;;
6033;SDS011;3045;43.226;27.858;2022-07-29T11:37:20;3.85;;;2.90;;
6033;SDS011;3045;43.226;27.858;2022-07-29T11:42:50;3.63;;;2.38;;
6033;SDS011;3045;43.226;27.858;2022-07-29T11:45:21;2.72;;;2.63;;
6033;SDS011;3045;43.226;27.858;2022-07-29T11:48:17;2.60;;;2.50;;
6033;SDS011;3045;43.226;27.858;2022-07-29T11:50:44;4.80;;;2.47;;
6033;SDS011;3045;43.226;27.858;2022-07-29T11:53:12;2.50;;;2.40;;
6033;SDS011;3045;43.226;27.858;2022-07-29T11:55:40;5.55;;;2.38;;
6033;SDS011;3045;43.226;27.858;2022-07-29T11:58:09;4.68;;;2.47;;
6033;SDS011;3045;43.226;27.858;2022-07-29T12:00:37;4.22;;;2.40;;
6033;SDS011;3045;43.226;27.858;2022-07-29T12:03:06;3.83;;;2.63;;
6033;SDS011;3045;43.226;27.858;2022-07-29T12:05:36;2.88;;;2.67;;
6033;SDS011;3045;43.226;27.858;2022-07-29T12:08:06;3.33;;;3.00;;
6033;SDS011;3045;43.226;27.858;2022-07-29T12:10:34;3.25;;;2.80;;
6033;SDS011;3045;43.226;27.858;2022-07-29T12:13:02;3.20;;;3.00;;
6033;SDS011;3045;43.226;27.858;2022-07-29T12:15:30;4.78;;;2.85;;
6033;SDS011;3045;43.226;27.858;2022-07-29T12:17:57;2.67;;;2.30;;
6033;SDS011;3045;43.226;27.858;2022-07-29T12:20:25;4.82;;;2.83;;
6033;SDS011;3045;43.226;27.858;2022-07-29T12:22:53;2.88;;;2.67;;
6033;SDS011;3045;43.226;27.858;2022-07-29T12:25:21;2.78;;;2.67;;
6033;SDS011;3045;43.226;27.858;2022-07-29T12:27:58;2.70;;;2.50;;
6033;SDS011;3045;43.226;27.858;2022-07-29T12:30:35;2.78;;;2.67;;
6033;SDS011;3045;43.226;27.858;2022-07-29T12:33:16;2.70;;;2.50;;
6033;SDS011;3045;43.226;27.858;2022-07-29T12:35:49;3.88;;;3.03;;
6033;SDS011;3045;43.226;27.858;2022-07-29T12:38:18;3.30;;;2.45;;
6033;SDS011;3045;43.226;27.858;2022-07-29T12:40:46;3.08;;;2.42;;
6033;SDS011;3045;43.226;27.858;2022-07-29T12:43:14;4.28;;;2.53;;
6033;SDS011;3045;43.226;27.858;2022-07-29T12:45:44;2.22;;;2.13;;
6033;SDS011;3045;43.226;27.858;2022-07-29T12:48:12;2.47;;;2.25;;
6033;SDS011;3045;43.226;27.858;2022-07-29T12:50:52;3.70;;;2.65;;
6033;SDS011;3045;43.226;27.858;2022-07-29T12:53:20;3.83;;;2.63;;
6033;SDS011;3045;43.226;27.858;2022-07-29T12:55:49;3.47;;;2.70;;
6033;SDS011;3045;43.226;27.858;2022-07-29T12:58:33;2.63;;;2.53;;
6033;SDS011;3045;43.226;27.858;2022-07-29T13:01:06;4.05;;;2.70;;
6033;SDS011;3045;43.226;27.858;2022-07-29T13:06:30;2.90;;;2.80;;
6033;SDS011;3045;43.226;27.858;2022-07-29T13:08:59;2.78;;;2.65;;
6033;SDS011;3045;43.226;27.858;2022-07-29T13:11:37;2.92;;;2.78;;
6033;SDS011;3045;43.226;27.858;2022-07-29T13:14:06;3.83;;;2.80;;
6033;SDS011;3045;43.226;27.858;2022-07-29T13:16:36;2.80;;;2.70;;
6033;SDS011;3045;43.226;27.858;2022-07-29T13:19:04;4.85;;;2.78;;
6033;SDS011;3045;43.226;27.858;2022-07-29T13:21:37;2.50;;;2.40;;
6033;SDS011;3045;43.226;27.858;2022-07-29T13:24:06;2.78;;;2.58;;
6033;SDS011;3045;43.226;27.858;2022-07-29T13:26:33;2.38;;;2.28;;
6033;SDS011;3045;43.226;27.858;2022-07-29T13:29:01;4.97;;;2.92;;
6033;SDS011;3045;43.226;27.858;2022-07-29T13:31:28;2.47;;;2.38;;
6033;SDS011;3045;43.226;27.858;2022-07-29T13:33:57;2.60;;;2.50;;
6033;SDS011;3045;43.226;27.858;2022-07-29T13:36:23;2.75;;;2.55;;
6033;SDS011;3045;43.226;27.858;2022-07-29T13:38:51;2.78;;;2.67;;
6033;SDS011;3045;43.226;27.858;2022-07-29T13:41:18;4.15;;;2.53;;
6033;SDS011;3045;43.226;27.858;2022-07-29T13:43:45;3.00;;;2.60;;
6033;SDS011;3045;43.226;27.858;2022-07-29T13:46:12;8.05;;;3.25;;
6033;SDS011;3045;43.226;27.858;2022-07-29T13:48:39;5.60;;;3.00;;
6033;SDS011;3045;43.226;27.858;2022-07-29T13:51:07;5.30;;;2.70;;
6033;SDS011;3045;43.226;27.858;2022-07-29T13:53:34;5.03;;;2.45;;
6033;SDS011;3045;43.226;27.858;2022-07-29T13:56:01;3.35;;;3.25;;
6033;SDS011;3045;43.226;27.858;2022-07-29T13:58:30;3.20;;;3.00;;
6033;SDS011;3045;43.226;27.858;2022-07-29T14:00:57;3.05;;;2.90;;
6033;SDS011;3045;43.226;27.858;2022-07-29T14:03:24;3.13;;;2.90;;
6033;SDS011;3045;43.226;27.858;2022-07-29T14:05:51;3.13;;;2.83;;
6033;SDS011;3045;43.226;27.858;2022-07-29T14:08:20;2.88;;;2.67;;
6033;SDS011;3045;43.226;27.858;2022-07-29T14:10:47;2.65;;;2.55;;
6033;SDS011;3045;43.226;27.858;2022-07-29T14:13:13;3.20;;;3.00;;
6033;SDS011;3045;43.226;27.858;2022-07-29T14:15:40;3.58;;;2.92;;
6033;SDS011;3045;43.226;27.858;2022-07-29T14:18:07;2.72;;;2.63;;
6033;SDS011;3045;43.226;27.858;2022-07-29T14:20:34;3.45;;;2.97;;
6033;SDS011;3045;43.226;27.858;2022-07-29T14:23:02;7.03;;;3.05;;
6033;SDS011;3045;43.226;27.858;2022-07-29T14:25:30;5.18;;;3.42;;
6033;SDS011;3045;43.226;27.858;2022-07-29T14:27:57;3.63;;;3.33;;
6033;SDS011;3045;43.226;27.858;2022-07-29T14:30:24;3.85;;;3.50;;
6033;SDS011;3045;43.226;27.858;2022-07-29T14:32:51;3.75;;;3.45;;
6033;SDS011;3045;43.226;27.858;2022-07-29T14:35:18;4.07;;;3.70;;
6033;SDS011;3045;43.226;27.858;2022-07-29T14:37:45;4.97;;;3.33;;
6033;SDS011;3045;43.226;27.858;2022-07-29T14:40:12;4.90;;;3.83;;
6033;SDS011;3045;43.226;27.858;2022-07-29T14:42:41;4.00;;;3.70;;
6033;SDS011;3045;43.226;27.858;2022-07-29T14:45:08;3.65;;;3.38;;
6033;SDS011;3045;43.226;27.858;2022-07-29T14:47:36;3.83;;;3.63;;
6033;SDS011;3045;43.226;27.858;2022-07-29T14:50:04;3.95;;;3.58;;
6033;SDS011;3045;43.226;27.858;2022-07-29T14:52:32;4.10;;;3.83;;
6033;SDS011;3045;43.226;27.858;2022-07-29T14:54:59;7.28;;;4.05;;
6033;SDS011;3045;43.226;27.858;2022-07-29T14:57:26;6.35;;;3.72;;
6033;SDS011;3045;43.226;27.858;2022-07-29T14:59:55;3.92;;;3.67;;
6033;SDS011;3045;43.226;27.858;2022-07-29T15:02:21;3.80;;;3.60;;
6033;SDS011;3045;43.226;27.858;2022-07-29T15:04:48;5.22;;;4.03;;
6033;SDS011;3045;43.226;27.858;2022-07-29T15:07:16;5.32;;;4.07;;
6033;SDS011;3045;43.226;27.858;2022-07-29T15:09:42;3.92;;;3.78;;
6033;SDS011;3045;43.226;27.858;2022-07-29T15:12:10;3.88;;;3.67;;
6033;SDS011;3045;43.226;27.858;2022-07-29T15:14:37;5.28;;;3.80;;
6033;SDS011;3045;43.226;27.858;2022-07-29T15:17:06;4.32;;;4.03;;
6033;SDS011;3045;43.226;27.858;2022-07-29T15:19:33;4.13;;;3.88;;
6033;SDS011;3045;43.226;27.858;2022-07-29T15:22:01;6.68;;;3.97;;
6033;SDS011;3045;43.226;27.858;2022-07-29T15:24:29;4.35;;;4.15;;
6033;SDS011;3045;43.226;27.858;2022-07-29T15:26:56;4.78;;;4.30;;